createdAt,value
2023-01-07T00:01:41.885Z,101617.31
2023-01-07T00:04:12.606Z,101611.09
2023-01-07T00:06:41.701Z,101606.72
2023-01-07T00:09:12.472Z,101611.22
2023-01-07T00:11:40.909Z,101611.22
2023-01-07T00:14:09.848Z,101602.31
2023-01-07T00:16:37.980Z,101604.25
2023-01-07T00:19:10.301Z,101601.59
2023-01-07T00:21:36.811Z,101589.16
2023-01-07T00:24:06.348Z,101590.16
2023-01-07T00:26:38.248Z,101589.31
2023-01-07T00:29:06.352Z,101587.59
2023-01-07T00:31:35.611Z,101587.59
2023-01-07T00:34:02.504Z,101593.84
2023-01-07T00:36:31.419Z,101584.06
2023-01-07T00:39:18.926Z,101585.06
2023-01-07T00:42:04.474Z,101578.84
2023-01-07T00:44:31.782Z,101569.13
2023-01-07T00:46:59.408Z,101574.47
2023-01-07T00:49:26.515Z,101559.34
2023-01-07T00:51:53.043Z,101566.44
2023-01-07T00:54:19.564Z,101563.75
2023-01-07T00:56:46.081Z,101561.06
2023-01-07T00:59:12.900Z,101553.03
2023-01-07T01:01:39.482Z,101556.56
2023-01-07T01:04:08.119Z,101551.19
2023-01-07T01:06:35.292Z,101557.53
2023-01-07T01:09:02.018Z,101546.81
2023-01-07T01:11:28.537Z,101550.34
2023-01-07T01:13:55.088Z,101545.94
2023-01-07T01:16:21.650Z,101545.94
2023-01-07T01:18:48.216Z,101543.41
2023-01-07T01:21:15.932Z,101543.41
2023-01-07T01:23:43.357Z,101541.56
2023-01-07T01:26:15.874Z,101539.88
2023-01-07T01:28:43.638Z,101539.88
2023-01-07T01:31:10.572Z,101533.78
2023-01-07T01:33:37.250Z,101537.47
2023-01-07T01:36:05.462Z,101541.97
2023-01-07T01:38:32.147Z,101539.31
2023-01-07T01:40:58.666Z,101532.25
2023-01-07T01:43:33.170Z,101535.03
2023-01-07T01:46:36.802Z,101529.84
2023-01-07T01:49:16.002Z,101527.84
2023-01-07T01:51:49.166Z,101527.00
2023-01-07T01:54:18.227Z,101526.16
2023-01-07T01:56:48.847Z,101530.81
2023-01-07T01:59:20.738Z,101526.41
2023-01-07T02:01:47.542Z,101530.69
2023-01-07T02:04:19.341Z,101521.94
2023-01-07T02:07:10.781Z,101530.94
2023-01-07T02:09:37.408Z,101526.41
2023-01-07T02:12:42.215Z,101522.06
2023-01-07T02:15:13.075Z,101523.03
2023-01-07T02:17:57.983Z,101523.88
2023-01-07T02:20:46.461Z,101515.84
2023-01-07T02:23:21.639Z,101520.50
2023-01-07T02:26:25.720Z,101512.59
2023-01-07T02:29:22.828Z,101512.59
2023-01-07T02:32:05.792Z,101516.00
2023-01-07T02:34:44.673Z,101514.41
2023-01-07T02:37:47.556Z,101505.69
2023-01-07T02:40:20.064Z,101509.06
2023-01-07T02:43:10.118Z,101506.63
2023-01-07T02:45:49.089Z,101502.84
2023-01-07T02:48:18.028Z,101492.13
2023-01-07T02:50:44.525Z,101490.28
2023-01-07T02:53:16.040Z,101492.97
2023-01-07T02:56:04.440Z,101499.44
2023-01-07T02:59:00.666Z,101489.59
2023-01-07T03:01:45.521Z,101483.25
2023-01-07T03:04:44.316Z,101477.88
2023-01-07T03:07:20.182Z,101477.88
2023-01-07T03:09:58.337Z,101468.00
2023-01-07T03:12:38.846Z,101470.09
2023-01-07T03:15:21.357Z,101466.44
2023-01-07T03:17:53.366Z,101469.13
2023-01-07T03:20:23.060Z,101457.69
2023-01-07T03:22:50.766Z,101456.84
2023-01-07T03:25:20.918Z,101448.94
2023-01-07T03:27:48.973Z,101446.25
2023-01-07T03:30:18.855Z,101445.56
2023-01-07T03:32:58.118Z,101442.88
2023-01-07T03:35:26.097Z,101452.75
2023-01-07T03:37:53.475Z,101442.88
2023-01-07T03:40:20.961Z,101443.88
2023-01-07T03:42:49.073Z,101434.09
2023-01-07T03:45:18.551Z,101441.31
2023-01-07T03:47:50.859Z,101439.59
2023-01-07T03:50:18.491Z,101434.25
2023-01-07T03:52:45.501Z,101433.25
2023-01-07T03:55:11.980Z,101438.88
2023-01-07T03:57:38.554Z,101444.97
2023-01-07T04:00:07.937Z,101427.31
2023-01-07T04:02:34.488Z,101425.63
2023-01-07T04:05:01.129Z,101431.84
2023-01-07T04:07:27.775Z,101432.81
2023-01-07T04:09:54.280Z,101430.16
2023-01-07T04:12:20.858Z,101422.22
2023-01-07T04:14:47.408Z,101420.53
2023-01-07T04:17:13.953Z,101423.22
2023-01-07T04:19:40.528Z,101421.38
2023-01-07T04:22:08.959Z,101417.00
2023-01-07T04:24:35.520Z,101417.84
2023-01-07T04:27:02.144Z,101417.00
2023-01-07T04:29:28.929Z,101409.81
2023-01-07T04:31:55.474Z,101400.94
2023-01-07T04:34:22.127Z,101399.09
2023-01-07T04:36:48.801Z,101399.09
2023-01-07T04:39:15.432Z,101389.38
2023-01-07T04:41:42.105Z,101393.75
2023-01-07T04:44:08.701Z,101399.09
2023-01-07T04:46:35.533Z,101398.09
2023-01-07T04:49:02.116Z,101399.94
2023-01-07T04:51:28.629Z,101393.75
2023-01-07T04:53:57.465Z,101401.78
2023-01-07T04:56:24.186Z,101394.59
2023-01-07T04:58:50.722Z,101386.56
2023-01-07T05:01:17.334Z,101385.84
2023-01-07T05:03:43.899Z,101384.03
2023-01-07T05:06:10.471Z,101381.34
2023-01-07T05:08:37.010Z,101383.28
2023-01-07T05:11:05.056Z,101387.81
2023-01-07T05:13:32.482Z,101377.09
2023-01-07T05:15:59.054Z,101381.59
2023-01-07T05:18:25.572Z,101375.41
2023-01-07T05:20:52.052Z,101378.22
2023-01-07T05:23:18.581Z,101377.22
2023-01-07T05:25:45.138Z,101372.88
2023-01-07T05:28:12.208Z,101372.88
2023-01-07T05:30:39.523Z,101372.03
2023-01-07T05:33:07.337Z,101366.66
2023-01-07T05:35:34.927Z,101367.50
2023-01-07T05:38:01.457Z,101358.63
2023-01-07T05:40:27.957Z,101357.75
2023-01-07T05:42:54.553Z,101354.22
2023-01-07T05:45:21.843Z,101353.38
2023-01-07T05:47:48.838Z,101355.22
2023-01-07T05:50:15.354Z,101350.84
2023-01-07T05:52:41.873Z,101341.00
2023-01-07T05:55:08.667Z,101336.63
2023-01-07T05:57:35.191Z,101336.63
2023-01-07T06:00:01.720Z,101326.88
2023-01-07T06:02:28.226Z,101326.03
2023-01-07T06:04:54.787Z,101330.53
2023-01-07T06:07:21.384Z,101318.13
2023-01-07T06:09:47.885Z,101318.13
2023-01-07T06:12:14.403Z,101312.94
2023-01-07T06:14:40.938Z,101312.94
2023-01-07T06:17:07.434Z,101303.06
2023-01-07T06:19:33.910Z,101305.84
2023-01-07T06:22:00.423Z,101296.97
2023-01-07T06:24:26.977Z,101300.38
2023-01-07T06:26:53.469Z,101295.97
2023-01-07T06:29:19.940Z,101289.78
2023-01-07T06:31:46.433Z,101287.00
2023-01-07T06:34:12.915Z,101286.16
2023-01-07T06:36:39.434Z,101284.31
2023-01-07T06:39:05.946Z,101277.13
2023-01-07T06:41:32.482Z,101274.44
2023-01-07T06:43:58.979Z,101274.44
2023-01-07T06:46:25.747Z,101281.63
2023-01-07T06:48:52.263Z,101270.91
2023-01-07T06:51:18.819Z,101279.91
2023-01-07T06:53:45.381Z,101278.94
2023-01-07T06:56:11.934Z,101281.75
2023-01-07T06:58:38.518Z,101279.91
2023-01-07T07:01:07.439Z,101271.34
2023-01-07T07:03:34.036Z,101262.31
2023-01-07T07:06:00.856Z,101248.19
2023-01-07T07:08:27.420Z,101250.03
2023-01-07T07:10:54.004Z,101258.22
2023-01-07T07:13:20.600Z,101247.50
2023-01-07T07:15:47.514Z,101246.66
2023-01-07T07:18:14.040Z,101244.94
2023-01-07T07:20:40.534Z,101238.88
2023-01-07T07:23:07.085Z,101247.91
2023-01-07T07:25:33.729Z,101255.78
2023-01-07T07:28:00.245Z,101244.25
2023-01-07T07:30:45.596Z,101243.53
2023-01-07T07:33:15.022Z,101238.88
2023-01-07T07:35:42.031Z,101236.34
2023-01-07T07:38:08.588Z,101232.81
2023-01-07T07:40:35.142Z,101236.47
2023-01-07T07:43:11.914Z,101225.75
2023-01-07T07:45:40.878Z,101239.16
2023-01-07T07:48:12.127Z,101234.78
2023-01-07T07:50:38.940Z,101230.44
2023-01-07T07:53:09.918Z,101231.28
2023-01-07T07:55:38.256Z,101229.56
2023-01-07T07:58:05.451Z,101229.56
2023-01-07T08:00:32.527Z,101228.59
2023-01-07T08:03:00.065Z,101225.06
2023-01-07T08:05:27.624Z,101219.00
2023-01-07T08:07:54.741Z,101216.31
2023-01-07T08:10:21.656Z,101222.50
2023-01-07T08:12:49.565Z,101214.63
2023-01-07T08:15:16.320Z,101220.81
2023-01-07T08:17:42.870Z,101219.84
2023-01-07T08:20:10.023Z,101225.19
2023-01-07T08:22:36.734Z,101213.78
2023-01-07T08:25:03.520Z,101215.47
2023-01-07T08:27:30.099Z,101218.84
2023-01-07T08:29:57.046Z,101210.97
2023-01-07T08:32:24.042Z,101205.44
2023-01-07T08:34:50.576Z,101209.84
2023-01-07T08:37:17.194Z,101205.59
2023-01-07T08:39:43.916Z,101209.13
2023-01-07T08:42:10.500Z,101217.16
2023-01-07T08:44:37.079Z,101211.81
2023-01-07T08:47:03.670Z,101204.50
2023-01-07T08:49:30.235Z,101206.31
2023-01-07T08:51:56.767Z,101185.75
2023-01-07T08:54:23.250Z,101196.31
2023-01-07T08:56:49.800Z,101192.78
2023-01-07T08:59:16.323Z,101191.94
2023-01-07T09:01:42.930Z,101190.94
2023-01-07T09:04:09.594Z,101189.84
2023-01-07T09:06:36.113Z,101187.16
2023-01-07T09:09:02.660Z,101188.69
2023-01-07T09:11:29.328Z,101177.97
2023-01-07T09:13:55.881Z,101182.38
2023-01-07T09:16:22.541Z,101179.69
2023-01-07T09:18:50.310Z,101177.03
2023-01-07T09:21:16.871Z,101159.13
2023-01-07T09:23:43.394Z,101163.63
2023-01-07T09:26:09.977Z,101157.44
2023-01-07T09:28:36.537Z,101157.56
2023-01-07T09:31:04.187Z,101144.16
2023-01-07T09:33:31.150Z,101146.84
2023-01-07T09:35:57.696Z,101146.84
2023-01-07T09:38:24.213Z,101137.97
2023-01-07T09:40:51.366Z,101136.97
2023-01-07T09:44:00.094Z,101132.88
2023-01-07T09:46:28.439Z,101129.09
2023-01-07T09:49:01.208Z,101133.59
2023-01-07T09:51:39.100Z,101138.13
2023-01-07T09:54:18.205Z,101130.94
2023-01-07T09:56:46.386Z,101127.25
2023-01-07T09:59:13.574Z,101121.91
2023-01-07T10:01:46.238Z,101120.22
2023-01-07T10:04:18.700Z,101105.84
2023-01-07T10:07:05.406Z,101105.00
2023-01-07T10:09:53.820Z,101108.34
2023-01-07T10:12:36.694Z,101104.00
2023-01-07T10:15:41.849Z,101099.63
2023-01-07T10:18:32.233Z,101088.78
2023-01-07T10:21:23.790Z,101075.53
2023-01-07T10:24:04.381Z,101073.69
2023-01-07T10:26:41.330Z,101066.50
2023-01-07T10:29:32.629Z,101060.88
2023-01-07T10:32:07.375Z,101051.56
2023-01-07T10:34:43.789Z,101050.97
2023-01-07T10:37:33.270Z,101046.75
2023-01-07T10:40:18.382Z,101035.31
2023-01-07T10:42:56.969Z,101028.41
2023-01-07T10:45:37.356Z,101018.94
2023-01-07T10:48:04.122Z,101013.84
2023-01-07T10:50:46.843Z,101007.03
2023-01-07T10:53:31.382Z,101001.41
2023-01-07T10:56:16.526Z,100999.97
2023-01-07T10:58:45.585Z,100992.47
2023-01-07T11:01:38.316Z,100981.44
2023-01-07T11:04:11.342Z,100985.56
2023-01-07T11:07:04.502Z,100978.06
2023-01-07T11:09:35.989Z,100952.81
2023-01-07T11:12:17.536Z,100966.03
2023-01-07T11:14:45.678Z,100950.66
2023-01-07T11:17:34.949Z,100944.31
2023-01-07T11:20:01.906Z,100937.78
2023-01-07T11:22:33.526Z,100943.00
2023-01-07T11:25:02.549Z,100931.28
2023-01-07T11:27:33.379Z,100928.44
2023-01-07T11:30:27.659Z,100909.66
2023-01-07T11:32:59.573Z,100909.38
2023-01-07T11:35:30.348Z,100906.38
2023-01-07T11:37:59.293Z,100906.38
2023-01-07T11:40:29.275Z,100901.88
2023-01-07T11:42:57.392Z,100890.00
2023-01-07T11:45:26.990Z,100893.53
2023-01-07T11:48:01.285Z,100888.84
2023-01-07T11:50:30.201Z,100890.53
2023-01-07T11:53:02.938Z,100885.00
2023-01-07T11:55:30.099Z,100875.00
2023-01-07T11:58:29.526Z,100872.16
2023-01-07T12:00:44.690Z,100874.66
2023-01-07T12:03:14.162Z,100862.09
2023-01-07T12:05:45.031Z,100868.31
2023-01-07T12:08:23.190Z,100857.59
2023-01-07T12:10:58.257Z,100854.03
2023-01-07T12:13:27.482Z,100849.53
2023-01-07T12:15:57.629Z,100842.63
2023-01-07T12:18:33.318Z,100841.81
2023-01-07T12:21:22.559Z,100834.06
2023-01-07T12:24:18.757Z,100827.00
2023-01-07T12:26:51.312Z,100824.47
2023-01-07T12:29:36.432Z,100820.41
2023-01-07T12:32:31.090Z,100819.56
2023-01-07T12:35:14.943Z,100808.84
2023-01-07T12:37:48.321Z,100803.66
2023-01-07T12:40:16.240Z,100795.59
2023-01-07T12:42:50.961Z,100793.91
2023-01-07T12:45:27.233Z,100777.84
2023-01-07T12:48:07.744Z,100788.69
2023-01-07T12:50:57.442Z,100763.88
2023-01-07T12:53:32.660Z,100767.25
2023-01-07T12:56:20.106Z,100755.97
2023-01-07T12:58:55.697Z,100743.41
2023-01-07T13:01:34.277Z,100731.00
2023-01-07T13:04:16.220Z,100733.69
2023-01-07T13:06:58.765Z,100724.13
2023-01-07T13:09:37.901Z,100719.75
2023-01-07T13:12:46.153Z,100718.06
2023-01-07T13:15:33.924Z,100706.34
2023-01-07T13:18:17.898Z,100705.81
2023-01-07T13:20:53.387Z,100704.84
2023-01-07T13:23:31.320Z,100697.75
2023-01-07T13:26:09.696Z,100686.19
2023-01-07T13:29:04.088Z,100682.00
2023-01-07T13:31:59.994Z,100677.50
2023-01-07T13:34:44.845Z,100679.00
2023-01-07T13:37:40.692Z,100670.81
2023-01-07T13:40:41.007Z,100659.09
2023-01-07T13:43:40.210Z,100663.44
2023-01-07T13:46:20.054Z,100658.59
2023-01-07T13:48:52.078Z,100654.91
2023-01-07T13:51:31.841Z,100648.72
2023-01-07T13:53:58.809Z,100640.53
2023-01-07T13:56:25.912Z,100638.84
2023-01-07T13:58:55.335Z,100640.84
2023-01-07T14:01:22.786Z,100619.69
2023-01-07T14:03:50.390Z,100613.69
2023-01-07T14:06:23.874Z,100612.97
2023-01-07T14:08:59.203Z,100620.34
2023-01-07T14:11:36.286Z,100625.19
2023-01-07T14:14:14.717Z,100614.47
2023-01-07T14:17:13.038Z,100612.94
2023-01-07T14:20:10.648Z,100613.75
2023-01-07T14:22:55.510Z,100593.47
2023-01-07T14:25:59.112Z,100607.84
2023-01-07T14:28:44.325Z,100601.81
2023-01-07T14:31:40.447Z,100603.78
2023-01-07T14:34:20.816Z,100587.72
2023-01-07T14:37:02.411Z,100592.22
2023-01-07T14:39:40.920Z,100592.22
2023-01-07T14:42:16.838Z,100597.75
2023-01-07T14:44:43.647Z,100608.47
2023-01-07T14:47:11.964Z,100610.31
2023-01-07T14:50:00.800Z,100599.91
2023-01-07T14:53:12.319Z,100604.44
2023-01-07T14:56:13.374Z,100592.72
2023-01-07T14:58:45.556Z,100597.22
2023-01-07T15:01:51.916Z,100581.47
2023-01-07T15:04:27.650Z,100582.00
2023-01-07T15:06:59.533Z,100575.97
2023-01-07T15:09:57.902Z,100574.25
2023-01-07T15:12:47.509Z,100568.91
2023-01-07T15:15:39.450Z,100560.19
2023-01-07T15:18:13.290Z,100567.41
2023-01-07T15:20:52.076Z,100562.16
2023-01-07T15:23:32.343Z,100574.59
2023-01-07T15:26:23.925Z,100558.50
2023-01-07T15:29:14.352Z,100557.66
2023-01-07T15:31:58.206Z,100558.50
2023-01-07T15:34:31.924Z,100547.78
2023-01-07T15:36:58.905Z,100540.72
2023-01-07T15:39:31.970Z,100549.47
2023-01-07T15:41:59.454Z,100537.06
2023-01-07T15:44:34.290Z,100534.53
2023-01-07T15:47:01.003Z,100539.06
2023-01-07T15:49:29.516Z,100540.06
2023-01-07T15:51:58.953Z,100540.06
2023-01-07T15:54:39.471Z,100534.84
2023-01-07T15:57:14.797Z,100524.28
2023-01-07T15:59:50.765Z,100527.97
2023-01-07T16:02:37.634Z,100506.69
2023-01-07T16:05:06.200Z,100518.28
2023-01-07T16:07:42.066Z,100512.03
2023-01-07T16:10:22.694Z,100510.53
2023-01-07T16:12:52.257Z,100510.53
2023-01-07T16:15:24.891Z,100493.75
2023-01-07T16:18:03.572Z,100504.47
2023-01-07T16:20:33.629Z,100497.44
2023-01-07T16:23:08.907Z,100503.97
2023-01-07T16:25:39.223Z,100497.63
2023-01-07T16:28:06.775Z,100504.97
2023-01-07T16:30:40.110Z,100499.59
2023-01-07T16:33:06.934Z,100505.97
2023-01-07T16:35:36.655Z,100504.28
2023-01-07T16:38:03.705Z,100501.63
2023-01-07T16:40:38.257Z,100503.75
2023-01-07T16:43:25.436Z,100495.56
2023-01-07T16:46:17.480Z,100502.94
2023-01-07T16:48:44.500Z,100502.75
2023-01-07T16:51:38.473Z,100510.78
2023-01-07T16:54:26.539Z,100518.84
2023-01-07T16:57:26.075Z,100515.97
2023-01-07T16:59:55.520Z,100518.66
2023-01-07T17:02:41.931Z,100538.41
2023-01-07T17:05:13.899Z,100521.22
2023-01-07T17:07:41.026Z,100518.66
2023-01-07T17:10:16.993Z,100514.31
2023-01-07T17:13:02.452Z,100512.94
2023-01-07T17:15:31.758Z,100510.13
2023-01-07T17:18:14.435Z,100495.19
2023-01-07T17:20:52.818Z,100496.22
2023-01-07T17:23:25.814Z,100492.81
2023-01-07T17:26:04.535Z,100494.66
2023-01-07T17:28:33.753Z,100495.50
2023-01-07T17:31:00.769Z,100485.81
2023-01-07T17:33:27.360Z,100473.41
2023-01-07T17:35:57.821Z,100481.59
2023-01-07T17:38:24.467Z,100479.91
2023-01-07T17:40:52.023Z,100463.84
2023-01-07T17:43:33.556Z,100467.66
2023-01-07T17:46:20.305Z,100461.47
2023-01-07T17:48:46.867Z,100462.31
2023-01-07T17:51:14.011Z,100466.81
2023-01-07T17:53:44.573Z,100466.00
2023-01-07T17:56:11.242Z,100455.44
2023-01-07T17:58:41.181Z,100448.25
2023-01-07T18:01:11.419Z,100443.91
2023-01-07T18:03:38.190Z,100442.19
2023-01-07T18:06:17.312Z,100441.53
2023-01-07T18:08:45.645Z,100432.66
2023-01-07T18:11:33.352Z,100435.47
2023-01-07T18:14:00.058Z,100439.00
2023-01-07T18:16:27.448Z,100435.47
2023-01-07T18:18:54.577Z,100445.34
2023-01-07T18:21:21.319Z,100438.16
2023-01-07T18:23:47.951Z,100442.69
2023-01-07T18:26:14.569Z,100426.59
2023-01-07T18:28:41.706Z,100424.09
2023-01-07T18:31:08.746Z,100422.44
2023-01-07T18:33:35.511Z,100425.94
2023-01-07T18:36:02.065Z,100420.59
2023-01-07T18:38:28.609Z,100418.88
2023-01-07T18:40:55.827Z,100417.06
2023-01-07T18:43:22.326Z,100414.53
2023-01-07T18:45:49.101Z,100433.28
2023-01-07T18:48:19.385Z,100425.25
2023-01-07T18:50:48.237Z,100424.25
2023-01-07T18:53:16.416Z,100422.56
2023-01-07T18:55:44.099Z,100420.72
2023-01-07T18:58:13.370Z,100421.56
2023-01-07T19:00:40.923Z,100423.41
2023-01-07T19:03:07.515Z,100420.59
2023-01-07T19:05:34.028Z,100426.78
2023-01-07T19:08:00.570Z,100419.75
2023-01-07T19:10:27.548Z,100421.56
2023-01-07T19:12:54.097Z,100416.19
2023-01-07T19:15:20.639Z,100414.53
2023-01-07T19:17:47.174Z,100405.66
2023-01-07T19:20:15.287Z,100405.66
2023-01-07T19:22:42.113Z,100411.03
2023-01-07T19:25:09.473Z,100405.84
2023-01-07T19:27:36.019Z,100410.19
2023-01-07T19:30:02.602Z,100407.69
2023-01-07T19:32:30.261Z,100400.47
2023-01-07T19:34:56.808Z,100402.47
2023-01-07T19:37:23.308Z,100398.78
2023-01-07T19:39:49.808Z,100406.13
2023-01-07T19:42:16.339Z,100396.28
2023-01-07T19:44:42.935Z,100399.13
2023-01-07T19:47:09.560Z,100391.09
2023-01-07T19:49:36.276Z,100385.72
2023-01-07T19:52:02.870Z,100380.38
2023-01-07T19:54:29.383Z,100379.69
2023-01-07T19:56:55.917Z,100375.16
2023-01-07T19:59:22.677Z,100371.66
2023-01-07T20:01:49.956Z,100376.00
2023-01-07T20:04:16.864Z,100378.00
2023-01-07T20:06:43.451Z,100393.06
2023-01-07T20:09:13.171Z,100373.50
2023-01-07T20:11:40.537Z,100372.66
2023-01-07T20:14:07.735Z,100363.78
2023-01-07T20:16:36.283Z,100368.31
2023-01-07T20:19:03.043Z,100379.84
2023-01-07T20:21:29.587Z,100376.34
2023-01-07T20:23:56.092Z,100364.94
2023-01-07T20:26:25.662Z,100364.94
2023-01-07T20:28:53.484Z,100373.13
2023-01-07T20:31:21.590Z,100370.44
2023-01-07T20:33:50.354Z,100368.75
2023-01-07T20:36:19.314Z,100367.78
2023-01-07T20:38:46.943Z,100365.25
2023-01-07T20:41:16.485Z,100365.25
2023-01-07T20:43:43.340Z,100368.91
2023-01-07T20:46:11.014Z,100361.91
2023-01-07T20:48:37.877Z,100363.75
2023-01-07T20:51:08.708Z,100361.91
2023-01-07T20:53:36.812Z,100362.91
2023-01-07T20:56:04.081Z,100348.50
2023-01-07T20:58:32.047Z,100358.38
2023-01-07T21:01:01.471Z,100347.81
2023-01-07T21:03:28.081Z,100349.53
2023-01-07T21:05:57.837Z,100349.66
2023-01-07T21:08:25.252Z,100340.63
2023-01-07T21:10:52.454Z,100339.66
2023-01-07T21:13:19.895Z,100337.09
2023-01-07T21:15:46.540Z,100343.28
2023-01-07T21:18:13.121Z,100344.16
2023-01-07T21:20:40.563Z,100347.81
2023-01-07T21:23:07.784Z,100347.81
2023-01-07T21:25:34.316Z,100337.09
2023-01-07T21:28:01.405Z,100330.91
2023-01-07T21:30:28.502Z,100339.78
2023-01-07T21:32:55.997Z,100346.16
2023-01-07T21:35:22.734Z,100337.09
2023-01-07T21:37:53.142Z,100344.31
2023-01-07T21:40:19.723Z,100338.13
2023-01-07T21:42:46.222Z,100336.28
2023-01-07T21:45:12.843Z,100337.28
2023-01-07T21:47:39.364Z,100325.75
2023-01-07T21:50:06.398Z,100330.09
2023-01-07T21:52:34.596Z,100332.09
2023-01-07T21:55:01.303Z,100325.88
2023-01-07T21:57:27.825Z,100329.41
2023-01-07T21:59:54.318Z,100318.72
2023-01-07T22:02:20.952Z,100326.88
2023-01-07T22:04:48.192Z,100321.53
2023-01-07T22:07:19.320Z,100310.00
2023-01-07T22:09:45.830Z,100301.13
2023-01-07T22:12:13.613Z,100300.28
2023-01-07T22:14:40.231Z,100311.13
2023-01-07T22:17:07.560Z,100312.00
2023-01-07T22:19:34.162Z,100304.81
2023-01-07T22:22:01.406Z,100304.94
2023-01-07T22:24:28.206Z,100313.81
2023-01-07T22:26:55.269Z,100311.13
2023-01-07T22:29:22.087Z,100303.28
2023-01-07T22:31:50.989Z,100313.97
2023-01-07T22:34:17.654Z,100304.09
2023-01-07T22:36:52.240Z,100297.25
2023-01-07T22:39:23.309Z,100304.28
2023-01-07T22:41:55.377Z,100313.97
2023-01-07T22:44:33.498Z,100309.63
2023-01-07T22:47:01.273Z,100312.13
2023-01-07T22:49:30.156Z,100317.50
2023-01-07T22:51:57.000Z,100313.16
2023-01-07T22:54:25.492Z,100321.16
2023-01-07T22:56:52.303Z,100320.34
2023-01-07T22:59:18.840Z,100331.88
2023-01-07T23:01:45.397Z,100319.50
2023-01-07T23:04:12.071Z,100329.19
2023-01-07T23:06:38.709Z,100334.72
2023-01-07T23:09:05.291Z,100335.56
2023-01-07T23:11:47.568Z,100326.69
2023-01-07T23:14:15.591Z,100347.94
2023-01-07T23:16:42.204Z,100345.44
2023-01-07T23:19:08.741Z,100348.94
2023-01-07T23:21:37.598Z,100346.41
2023-01-07T23:24:04.263Z,100364.16
2023-01-07T23:26:30.840Z,100368.66
2023-01-07T23:28:58.109Z,100369.50
2023-01-07T23:31:24.786Z,100372.31
2023-01-07T23:33:51.364Z,100363.47
2023-01-07T23:36:17.888Z,100366.13
2023-01-07T23:38:44.405Z,100362.63
2023-01-07T23:41:12.116Z,100355.59
2023-01-07T23:43:38.805Z,100360.97
2023-01-07T23:46:07.352Z,100345.84
2023-01-07T23:48:36.821Z,100343.34
2023-01-07T23:51:06.485Z,100348.84
2023-01-07T23:53:33.802Z,100345.00
2023-01-07T23:56:00.460Z,100343.16
2023-01-07T23:58:27.751Z,100343.16
